Kezdőlap
METAR-TAF:

METAR-TAF

Repülőterek :

Melun, Franciaország

földrajzi szélesség: 48-37N, földrajzi hosszúság: 002-41E, magasság: 95 m

Jelenlegi meteorológiai megfigyelések

A jelentés 44 perccel ezelõtt készült, 12:30 UTC
Délnyugati szél 13 kt
Hőmérséklet 11°C
Páratartalom 71%
Légköri nyomás 1006 hPa
Látótávolság 10 km, vagy több
felhőtlen 1500 m magasságban, és nincs gomolyfelhõ

METAR: LFPM 151230Z AUTO 23013KT CAVOK 11/06 Q1006

Idő: 14:14 (13:14 UTC)


TAF: hiányzik

Meteorológiai megfigyelések és előrejelzések több, mint 4000 repülőtéren (METAR és TAF jelentéseket).

A térképen piros és sárga pontok jelzik az elérhető meteorológiai állomásokat.

Mozgassa az egeret a pont fölött, hogy megjelenjen az állomás neve.

Azután kattintson az időjárási megfigyelések és előrejelzések megtekintéséhez.

A térkép megváltoztatása: kattintson a fekete keresztel jelölt zöld gombra ráközelítéshez, a vonallal jelölt zöld gombra távolításhoz, vagy a zöld nyilakra a szomszédos térképek eléréséhez.


METAR-TAF: